Terminal Aerodrome Forecast
Issued by NWS Norman, OK

Home | Current Version | Previous Version | Text Only | Print | Product List | Glossary On
Versions: 1 2 3 4 5 6 7 8 9 10 11 12 13
000
FTUS44 KOUN 240537
TAFSPS
TAF
KSPS 240537Z 2406/2506 15020G28KT P6SM FEW060 BKN100
     FM241000 17017G25KT P6SM BKN020
     FM241400 34023G35KT P6SM FEW030 SCT250
     FM250000 36010KT P6SM SCT250=

USA.gov is the U.S. government's official web portal to all federal, state and local government web resources and services.